sensor_id;sensor_type;location;lat;lon;timestamp;temperature;humidity
7129;DHT22;3606;52.930;8.644;2022-09-20T00:00:37;9.00;99.90
7129;DHT22;3606;52.930;8.644;2022-09-20T00:03:03;9.00;99.90
7129;DHT22;3606;52.930;8.644;2022-09-20T00:05:32;9.00;99.90
7129;DHT22;3606;52.930;8.644;2022-09-20T00:07:57;9.00;99.90
7129;DHT22;3606;52.930;8.644;2022-09-20T00:10:23;9.10;99.90
7129;DHT22;3606;52.930;8.644;2022-09-20T00:12:49;9.10;99.90
7129;DHT22;3606;52.930;8.644;2022-09-20T00:15:14;9.20;99.90
7129;DHT22;3606;52.930;8.644;2022-09-20T00:17:40;9.10;99.90
7129;DHT22;3606;52.930;8.644;2022-09-20T00:20:06;9.10;99.90
7129;DHT22;3606;52.930;8.644;2022-09-20T00:22:31;9.20;99.90
7129;DHT22;3606;52.930;8.644;2022-09-20T00:24:57;9.20;99.90
7129;DHT22;3606;52.930;8.644;2022-09-20T00:27:23;9.40;99.90
7129;DHT22;3606;52.930;8.644;2022-09-20T00:29:48;9.40;99.90
7129;DHT22;3606;52.930;8.644;2022-09-20T00:32:14;9.40;99.90
7129;DHT22;3606;52.930;8.644;2022-09-20T00:34:39;9.40;99.90
7129;DHT22;3606;52.930;8.644;2022-09-20T00:37:23;9.40;99.90
7129;DHT22;3606;52.930;8.644;2022-09-20T00:39:49;9.50;99.90
7129;DHT22;3606;52.930;8.644;2022-09-20T00:42:14;9.40;99.90
7129;DHT22;3606;52.930;8.644;2022-09-20T00:44:54;9.50;99.90
7129;DHT22;3606;52.930;8.644;2022-09-20T00:52:37;9.40;99.90
7129;DHT22;3606;52.930;8.644;2022-09-20T00:55:07;9.50;99.90
7129;DHT22;3606;52.930;8.644;2022-09-20T00:57:33;9.30;99.90
7129;DHT22;3606;52.930;8.644;2022-09-20T01:00:03;9.20;99.90
7129;DHT22;3606;52.930;8.644;2022-09-20T01:02:31;9.30;99.90
7129;DHT22;3606;52.930;8.644;2022-09-20T01:04:59;9.20;99.90
7129;DHT22;3606;52.930;8.644;2022-09-20T01:07:25;9.10;99.90
7129;DHT22;3606;52.930;8.644;2022-09-20T01:09:51;9.00;99.90
7129;DHT22;3606;52.930;8.644;2022-09-20T01:12:19;9.00;99.90
7129;DHT22;3606;52.930;8.644;2022-09-20T01:14:47;9.00;99.90
7129;DHT22;3606;52.930;8.644;2022-09-20T01:17:15;9.20;99.90
7129;DHT22;3606;52.930;8.644;2022-09-20T01:27:46;9.30;99.90
7129;DHT22;3606;52.930;8.644;2022-09-20T01:30:22;9.30;99.90
7129;DHT22;3606;52.930;8.644;2022-09-20T01:33:08;9.40;99.90
7129;DHT22;3606;52.930;8.644;2022-09-20T01:35:36;9.40;99.90
7129;DHT22;3606;52.930;8.644;2022-09-20T01:38:21;9.50;99.90
7129;DHT22;3606;52.930;8.644;2022-09-20T01:40:58;9.50;99.90
7129;DHT22;3606;52.930;8.644;2022-09-20T01:43:35;9.50;99.90
7129;DHT22;3606;52.930;8.644;2022-09-20T01:48:48;9.60;99.90
7129;DHT22;3606;52.930;8.644;2022-09-20T02:00:06;9.20;99.90
7129;DHT22;3606;52.930;8.644;2022-09-20T02:02:41;9.10;99.90
7129;DHT22;3606;52.930;8.644;2022-09-20T02:16:48;9.10;99.90
7129;DHT22;3606;52.930;8.644;2022-09-20T02:28:20;8.90;99.90
7129;DHT22;3606;52.930;8.644;2022-09-20T02:36:15;8.70;99.90
7129;DHT22;3606;52.930;8.644;2022-09-20T02:50:16;8.50;99.90
7129;DHT22;3606;52.930;8.644;2022-09-20T02:55:24;8.50;99.90
7129;DHT22;3606;52.930;8.644;2022-09-20T03:00:39;8.30;99.90
7129;DHT22;3606;52.930;8.644;2022-09-20T03:03:33;8.30;99.90
7129;DHT22;3606;52.930;8.644;2022-09-20T03:08:48;8.40;99.90
7129;DHT22;3606;52.930;8.644;2022-09-20T03:14:56;8.40;99.90
7129;DHT22;3606;52.930;8.644;2022-09-20T03:18:43;8.20;99.90
7129;DHT22;3606;52.930;8.644;2022-09-20T03:20:59;8.10;99.90
7129;DHT22;3606;52.930;8.644;2022-09-20T03:35:08;7.70;99.90
7129;DHT22;3606;52.930;8.644;2022-09-20T03:43:23;7.90;99.90
7129;DHT22;3606;52.930;8.644;2022-09-20T03:46:21;8.00;99.90
7129;DHT22;3606;52.930;8.644;2022-09-20T03:51:51;8.20;99.90
7129;DHT22;3606;52.930;8.644;2022-09-20T04:00:06;8.60;99.90
7129;DHT22;3606;52.930;8.644;2022-09-20T04:02:45;8.60;99.90
7129;DHT22;3606;52.930;8.644;2022-09-20T04:05:27;8.60;99.90
7129;DHT22;3606;52.930;8.644;2022-09-20T04:18:44;8.90;99.90
7129;DHT22;3606;52.930;8.644;2022-09-20T04:26:59;8.70;99.90
7129;DHT22;3606;52.930;8.644;2022-09-20T04:29:30;8.50;99.90
7129;DHT22;3606;52.930;8.644;2022-09-20T04:34:50;8.20;99.90
7129;DHT22;3606;52.930;8.644;2022-09-20T04:37:37;8.30;99.90
7129;DHT22;3606;52.930;8.644;2022-09-20T04:54:27;8.90;99.90
7129;DHT22;3606;52.930;8.644;2022-09-20T05:00:17;9.10;99.90
7129;DHT22;3606;52.930;8.644;2022-09-20T05:19:24;9.10;99.90
7129;DHT22;3606;52.930;8.644;2022-09-20T05:22:17;9.10;99.90
7129;DHT22;3606;52.930;8.644;2022-09-20T05:24:59;9.10;99.90
7129;DHT22;3606;52.930;8.644;2022-09-20T05:33:34;9.20;99.90
7129;DHT22;3606;52.930;8.644;2022-09-20T05:36:08;9.30;99.90
7129;DHT22;3606;52.930;8.644;2022-09-20T05:41:58;9.50;99.90
7129;DHT22;3606;52.930;8.644;2022-09-20T05:47:44;9.50;99.90
7129;DHT22;3606;52.930;8.644;2022-09-20T05:55:50;9.60;99.90
7129;DHT22;3606;52.930;8.644;2022-09-20T06:01:22;9.60;99.90
7129;DHT22;3606;52.930;8.644;2022-09-20T06:03:54;9.60;99.90
7129;DHT22;3606;52.930;8.644;2022-09-20T06:14:57;9.90;99.90
7129;DHT22;3606;52.930;8.644;2022-09-20T06:17:27;10.00;99.90
7129;DHT22;3606;52.930;8.644;2022-09-20T06:22:47;9.90;99.90
7129;DHT22;3606;52.930;8.644;2022-09-20T06:28:03;10.00;99.90
7129;DHT22;3606;52.930;8.644;2022-09-20T06:30:35;10.00;99.90
7129;DHT22;3606;52.930;8.644;2022-09-20T06:33:17;10.10;99.90
7129;DHT22;3606;52.930;8.644;2022-09-20T06:36:18;10.20;99.90
7129;DHT22;3606;52.930;8.644;2022-09-20T06:42:14;10.30;99.90
7129;DHT22;3606;52.930;8.644;2022-09-20T06:44:40;10.30;99.90
7129;DHT22;3606;52.930;8.644;2022-09-20T06:47:12;10.50;99.90
7129;DHT22;3606;52.930;8.644;2022-09-20T06:49:38;10.40;99.90
7129;DHT22;3606;52.930;8.644;2022-09-20T06:52:09;10.40;99.90
7129;DHT22;3606;52.930;8.644;2022-09-20T06:54:36;10.50;99.90
7129;DHT22;3606;52.930;8.644;2022-09-20T06:57:04;10.50;99.90
7129;DHT22;3606;52.930;8.644;2022-09-20T06:59:30;10.60;99.90
7129;DHT22;3606;52.930;8.644;2022-09-20T07:01:57;10.70;99.90
7129;DHT22;3606;52.930;8.644;2022-09-20T07:04:22;10.80;99.90
7129;DHT22;3606;52.930;8.644;2022-09-20T07:06:49;10.80;99.90
7129;DHT22;3606;52.930;8.644;2022-09-20T07:09:15;11.00;99.90
7129;DHT22;3606;52.930;8.644;2022-09-20T07:11:42;11.00;99.90
7129;DHT22;3606;52.930;8.644;2022-09-20T07:14:10;11.00;99.90
7129;DHT22;3606;52.930;8.644;2022-09-20T07:16:37;11.00;99.90
7129;DHT22;3606;52.930;8.644;2022-09-20T07:19:03;10.90;99.90
7129;DHT22;3606;52.930;8.644;2022-09-20T07:21:30;10.90;99.90
7129;DHT22;3606;52.930;8.644;2022-09-20T07:23:55;11.00;99.90
7129;DHT22;3606;52.930;8.644;2022-09-20T07:26:27;11.10;99.90
7129;DHT22;3606;52.930;8.644;2022-09-20T07:28:54;11.30;99.90
7129;DHT22;3606;52.930;8.644;2022-09-20T07:31:22;11.60;99.90
7129;DHT22;3606;52.930;8.644;2022-09-20T07:33:48;11.80;99.90
7129;DHT22;3606;52.930;8.644;2022-09-20T07:36:15;12.00;99.90
7129;DHT22;3606;52.930;8.644;2022-09-20T07:38:48;12.20;99.90
7129;DHT22;3606;52.930;8.644;2022-09-20T07:41:15;12.30;99.90
7129;DHT22;3606;52.930;8.644;2022-09-20T07:43:43;12.40;99.90
7129;DHT22;3606;52.930;8.644;2022-09-20T07:46:09;12.70;99.90
7129;DHT22;3606;52.930;8.644;2022-09-20T07:48:38;12.90;99.90
7129;DHT22;3606;52.930;8.644;2022-09-20T07:51:06;13.10;99.90
7129;DHT22;3606;52.930;8.644;2022-09-20T07:53:32;13.20;99.90
7129;DHT22;3606;52.930;8.644;2022-09-20T07:58:31;13.40;99.90
7129;DHT22;3606;52.930;8.644;2022-09-20T08:01:00;13.50;99.90
7129;DHT22;3606;52.930;8.644;2022-09-20T08:03:27;13.80;99.90
7129;DHT22;3606;52.930;8.644;2022-09-20T08:06:20;13.90;5.10
7129;DHT22;3606;52.930;8.644;2022-09-20T08:08:46;13.60;1.00
7129;DHT22;3606;52.930;8.644;2022-09-20T08:11:14;13.60;25.10
7129;DHT22;3606;52.930;8.644;2022-09-20T08:13:46;13.50;1.00
7129;DHT22;3606;52.930;8.644;2022-09-20T08:16:12;13.40;55.40
7129;DHT22;3606;52.930;8.644;2022-09-20T08:18:43;13.10;1.00
7129;DHT22;3606;52.930;8.644;2022-09-20T08:21:11;12.70;57.80
7129;DHT22;3606;52.930;8.644;2022-09-20T08:23:38;12.30;99.90
7129;DHT22;3606;52.930;8.644;2022-09-20T08:26:06;11.90;99.90
7129;DHT22;3606;52.930;8.644;2022-09-20T08:28:32;11.70;99.90
7129;DHT22;3606;52.930;8.644;2022-09-20T08:31:09;11.60;99.90
7129;DHT22;3606;52.930;8.644;2022-09-20T08:33:36;11.50;99.90
7129;DHT22;3606;52.930;8.644;2022-09-20T08:36:03;11.50;99.90
7129;DHT22;3606;52.930;8.644;2022-09-20T08:38:30;11.50;99.90
7129;DHT22;3606;52.930;8.644;2022-09-20T08:40:59;11.60;99.90
7129;DHT22;3606;52.930;8.644;2022-09-20T08:43:31;11.80;99.90
7129;DHT22;3606;52.930;8.644;2022-09-20T08:45:59;12.20;99.90
7129;DHT22;3606;52.930;8.644;2022-09-20T08:48:29;12.60;99.90
7129;DHT22;3606;52.930;8.644;2022-09-20T08:51:03;13.00;99.90
7129;DHT22;3606;52.930;8.644;2022-09-20T08:53:30;13.10;99.90
7129;DHT22;3606;52.930;8.644;2022-09-20T08:55:57;13.10;99.90
7129;DHT22;3606;52.930;8.644;2022-09-20T08:58:24;13.00;99.90
7129;DHT22;3606;52.930;8.644;2022-09-20T09:00:50;13.00;99.90
7129;DHT22;3606;52.930;8.644;2022-09-20T09:03:16;13.00;99.90
7129;DHT22;3606;52.930;8.644;2022-09-20T09:05:53;13.40;99.90
7129;DHT22;3606;52.930;8.644;2022-09-20T09:08:23;14.00;69.20
7129;DHT22;3606;52.930;8.644;2022-09-20T09:11:02;14.60;1.00
7129;DHT22;3606;52.930;8.644;2022-09-20T09:13:51;16.40;1.00
7129;DHT22;3606;52.930;8.644;2022-09-20T09:16:19;18.50;55.00
7129;DHT22;3606;52.930;8.644;2022-09-20T09:18:46;19.00;99.90
7129;DHT22;3606;52.930;8.644;2022-09-20T09:21:22;18.40;99.90
7129;DHT22;3606;52.930;8.644;2022-09-20T09:26:26;18.20;1.00
7129;DHT22;3606;52.930;8.644;2022-09-20T09:29:22;19.30;99.90
7129;DHT22;3606;52.930;8.644;2022-09-20T09:31:50;20.40;99.90
7129;DHT22;3606;52.930;8.644;2022-09-20T09:34:26;21.20;1.00
7129;DHT22;3606;52.930;8.644;2022-09-20T09:36:52;21.60;99.90
7129;DHT22;3606;52.930;8.644;2022-09-20T09:39:29;21.30;99.90
7129;DHT22;3606;52.930;8.644;2022-09-20T09:41:56;21.10;99.90
7129;DHT22;3606;52.930;8.644;2022-09-20T09:44:30;20.60;1.00
7129;DHT22;3606;52.930;8.644;2022-09-20T09:46:59;21.50;1.00
7129;DHT22;3606;52.930;8.644;2022-09-20T09:49:30;22.80;99.90
7129;DHT22;3606;52.930;8.644;2022-09-20T09:52:12;23.10;99.90
7129;DHT22;3606;52.930;8.644;2022-09-20T09:54:50;22.00;90.20
7129;DHT22;3606;52.930;8.644;2022-09-20T10:00:14;19.70;99.90
7129;DHT22;3606;52.930;8.644;2022-09-20T10:19:59;15.20;1.00
7129;DHT22;3606;52.930;8.644;2022-09-20T10:25:24;14.20;99.90
7129;DHT22;3606;52.930;8.644;2022-09-20T10:28:24;13.80;99.90
7129;DHT22;3606;52.930;8.644;2022-09-20T10:31:16;13.50;99.90
7129;DHT22;3606;52.930;8.644;2022-09-20T10:34:16;12.90;1.00
7129;DHT22;3606;52.930;8.644;2022-09-20T10:36:53;12.60;1.00
7129;DHT22;3606;52.930;8.644;2022-09-20T10:39:38;12.40;99.90
7129;DHT22;3606;52.930;8.644;2022-09-20T10:42:29;12.20;98.30
7129;DHT22;3606;52.930;8.644;2022-09-20T10:45:46;12.10;99.90
7129;DHT22;3606;52.930;8.644;2022-09-20T10:48:24;12.00;99.90
7129;DHT22;3606;52.930;8.644;2022-09-20T10:56:32;11.90;99.90
7129;DHT22;3606;52.930;8.644;2022-09-20T11:07:29;12.60;99.90
7129;DHT22;3606;52.930;8.644;2022-09-20T11:10:21;12.70;99.90
7129;DHT22;3606;52.930;8.644;2022-09-20T11:12:54;12.90;99.90
7129;DHT22;3606;52.930;8.644;2022-09-20T11:21:20;16.00;99.90
7129;DHT22;3606;52.930;8.644;2022-09-20T11:26:43;16.90;1.00
7129;DHT22;3606;52.930;8.644;2022-09-20T11:29:25;17.90;99.90
7129;DHT22;3606;52.930;8.644;2022-09-20T11:31:56;18.90;99.90
7129;DHT22;3606;52.930;8.644;2022-09-20T11:34:29;18.90;1.00
7129;DHT22;3606;52.930;8.644;2022-09-20T11:36:57;18.10;99.90
7129;DHT22;3606;52.930;8.644;2022-09-20T11:41:55;17.00;1.00
7129;DHT22;3606;52.930;8.644;2022-09-20T11:44:24;16.10;1.00
7129;DHT22;3606;52.930;8.644;2022-09-20T11:46:54;15.50;99.90
7129;DHT22;3606;52.930;8.644;2022-09-20T11:57:20;14.40;1.00
7129;DHT22;3606;52.930;8.644;2022-09-20T11:59:53;14.40;1.00
7129;DHT22;3606;52.930;8.644;2022-09-20T12:02:36;14.50;28.60
7129;DHT22;3606;52.930;8.644;2022-09-20T12:05:06;14.60;99.90
7129;DHT22;3606;52.930;8.644;2022-09-20T12:07:42;15.00;99.90
7129;DHT22;3606;52.930;8.644;2022-09-20T12:10:29;15.70;99.90
7129;DHT22;3606;52.930;8.644;2022-09-20T12:13:00;16.40;99.90
7129;DHT22;3606;52.930;8.644;2022-09-20T12:28:57;15.50;1.00
7129;DHT22;3606;52.930;8.644;2022-09-20T13:03:25;18.80;99.90
7129;DHT22;3606;52.930;8.644;2022-09-20T13:11:41;17.10;1.00
7129;DHT22;3606;52.930;8.644;2022-09-20T13:24:26;16.00;99.90
7129;DHT22;3606;52.930;8.644;2022-09-20T13:26:53;15.80;99.90
7129;DHT22;3606;52.930;8.644;2022-09-20T13:32:23;15.70;99.90
7129;DHT22;3606;52.930;8.644;2022-09-20T13:37:59;16.60;99.90
7129;DHT22;3606;52.930;8.644;2022-09-20T13:40:38;17.10;1.00
7129;DHT22;3606;52.930;8.644;2022-09-20T13:45:55;17.70;1.00
7129;DHT22;3606;52.930;8.644;2022-09-20T13:48:29;18.40;1.00
7129;DHT22;3606;52.930;8.644;2022-09-20T13:50:55;18.80;1.00
7129;DHT22;3606;52.930;8.644;2022-09-20T13:53:23;18.90;99.90
7129;DHT22;3606;52.930;8.644;2022-09-20T13:55:49;19.80;99.90
7129;DHT22;3606;52.930;8.644;2022-09-20T13:58:31;21.20;99.90
7129;DHT22;3606;52.930;8.644;2022-09-20T14:01:02;22.20;1.00
7129;DHT22;3606;52.930;8.644;2022-09-20T14:03:31;23.00;1.00
7129;DHT22;3606;52.930;8.644;2022-09-20T14:06:03;23.60;1.00
7129;DHT22;3606;52.930;8.644;2022-09-20T14:08:39;24.10;1.00
7129;DHT22;3606;52.930;8.644;2022-09-20T14:11:13;24.80;1.00
7129;DHT22;3606;52.930;8.644;2022-09-20T14:13:42;24.30;1.00
7129;DHT22;3606;52.930;8.644;2022-09-20T14:16:09;23.90;1.00
7129;DHT22;3606;52.930;8.644;2022-09-20T14:18:36;23.00;1.00
7129;DHT22;3606;52.930;8.644;2022-09-20T14:21:06;21.60;1.00
7129;DHT22;3606;52.930;8.644;2022-09-20T14:23:46;21.50;1.00
7129;DHT22;3606;52.930;8.644;2022-09-20T14:26:30;22.00;1.00
7129;DHT22;3606;52.930;8.644;2022-09-20T14:31:53;22.10;1.00
7129;DHT22;3606;52.930;8.644;2022-09-20T14:34:19;21.70;1.00
7129;DHT22;3606;52.930;8.644;2022-09-20T14:36:50;21.40;1.00
7129;DHT22;3606;52.930;8.644;2022-09-20T14:39:17;20.40;1.00
7129;DHT22;3606;52.930;8.644;2022-09-20T14:41:46;19.30;1.00
7129;DHT22;3606;52.930;8.644;2022-09-20T14:46:46;17.60;99.90
7129;DHT22;3606;52.930;8.644;2022-09-20T14:49:20;16.90;1.00
7129;DHT22;3606;52.930;8.644;2022-09-20T14:57:34;13.40;1.00
7129;DHT22;3606;52.930;8.644;2022-09-20T15:00:04;13.00;1.00
7129;DHT22;3606;52.930;8.644;2022-09-20T15:02:34;12.60;99.90
7129;DHT22;3606;52.930;8.644;2022-09-20T15:05:01;12.40;85.20
7129;DHT22;3606;52.930;8.644;2022-09-20T15:07:27;12.40;1.00
7129;DHT22;3606;52.930;8.644;2022-09-20T15:09:53;12.30;1.00
7129;DHT22;3606;52.930;8.644;2022-09-20T15:12:19;12.40;1.00
7129;DHT22;3606;52.930;8.644;2022-09-20T15:14:46;12.40;1.00
7129;DHT22;3606;52.930;8.644;2022-09-20T15:17:17;12.60;81.10
7129;DHT22;3606;52.930;8.644;2022-09-20T15:19:44;12.70;99.90
7129;DHT22;3606;52.930;8.644;2022-09-20T15:22:10;12.80;99.90
7129;DHT22;3606;52.930;8.644;2022-09-20T15:24:36;12.80;50.70
7129;DHT22;3606;52.930;8.644;2022-09-20T15:27:01;12.90;1.00
7129;DHT22;3606;52.930;8.644;2022-09-20T15:29:27;12.90;1.00
7129;DHT22;3606;52.930;8.644;2022-09-20T15:31:53;13.00;1.00
7129;DHT22;3606;52.930;8.644;2022-09-20T15:34:18;13.00;1.00
7129;DHT22;3606;52.930;8.644;2022-09-20T15:36:44;13.00;18.30
7129;DHT22;3606;52.930;8.644;2022-09-20T15:39:10;13.00;1.00
7129;DHT22;3606;52.930;8.644;2022-09-20T15:41:36;13.10;17.20
7129;DHT22;3606;52.930;8.644;2022-09-20T15:44:05;13.10;21.30
7129;DHT22;3606;52.930;8.644;2022-09-20T15:46:31;13.10;60.20
7129;DHT22;3606;52.930;8.644;2022-09-20T15:49:01;13.10;99.90
7129;DHT22;3606;52.930;8.644;2022-09-20T15:51:28;13.00;99.90
7129;DHT22;3606;52.930;8.644;2022-09-20T15:54:00;12.80;99.90
7129;DHT22;3606;52.930;8.644;2022-09-20T15:56:31;12.70;99.90
7129;DHT22;3606;52.930;8.644;2022-09-20T15:58:59;12.50;99.90
7129;DHT22;3606;52.930;8.644;2022-09-20T16:01:27;12.60;99.90
7129;DHT22;3606;52.930;8.644;2022-09-20T16:03:53;12.50;99.90
7129;DHT22;3606;52.930;8.644;2022-09-20T16:06:20;12.40;99.90
7129;DHT22;3606;52.930;8.644;2022-09-20T16:08:45;12.20;99.90
7129;DHT22;3606;52.930;8.644;2022-09-20T16:11:13;12.10;99.90
7129;DHT22;3606;52.930;8.644;2022-09-20T16:13:39;12.00;99.90
7129;DHT22;3606;52.930;8.644;2022-09-20T16:16:07;11.80;99.90
7129;DHT22;3606;52.930;8.644;2022-09-20T16:18:35;11.80;99.90
7129;DHT22;3606;52.930;8.644;2022-09-20T16:21:20;11.80;99.90
7129;DHT22;3606;52.930;8.644;2022-09-20T16:23:52;11.70;99.90
7129;DHT22;3606;52.930;8.644;2022-09-20T16:26:19;11.60;99.90
7129;DHT22;3606;52.930;8.644;2022-09-20T16:28:46;11.50;99.90
7129;DHT22;3606;52.930;8.644;2022-09-20T16:31:34;11.40;99.90
7129;DHT22;3606;52.930;8.644;2022-09-20T16:34:06;11.30;99.90
7129;DHT22;3606;52.930;8.644;2022-09-20T16:36:32;11.20;99.90
7129;DHT22;3606;52.930;8.644;2022-09-20T16:38:58;11.00;99.90
7129;DHT22;3606;52.930;8.644;2022-09-20T16:41:25;10.90;99.90
7129;DHT22;3606;52.930;8.644;2022-09-20T16:43:52;10.80;99.90
7129;DHT22;3606;52.930;8.644;2022-09-20T16:46:22;10.70;99.90
7129;DHT22;3606;52.930;8.644;2022-09-20T16:48:49;10.50;99.90
7129;DHT22;3606;52.930;8.644;2022-09-20T16:51:17;10.40;99.90
7129;DHT22;3606;52.930;8.644;2022-09-20T16:53:43;10.40;99.90
7129;DHT22;3606;52.930;8.644;2022-09-20T16:56:20;10.30;99.90
7129;DHT22;3606;52.930;8.644;2022-09-20T16:58:47;10.30;99.90
7129;DHT22;3606;52.930;8.644;2022-09-20T17:01:12;10.20;99.90
7129;DHT22;3606;52.930;8.644;2022-09-20T17:03:38;10.10;99.90
7129;DHT22;3606;52.930;8.644;2022-09-20T17:06:06;10.10;99.90
7129;DHT22;3606;52.930;8.644;2022-09-20T17:08:33;10.00;99.90
7129;DHT22;3606;52.930;8.644;2022-09-20T17:11:11;10.00;99.90
7129;DHT22;3606;52.930;8.644;2022-09-20T17:13:38;9.90;99.90
7129;DHT22;3606;52.930;8.644;2022-09-20T17:16:16;9.80;99.90
7129;DHT22;3606;52.930;8.644;2022-09-20T17:18:42;9.80;99.90
7129;DHT22;3606;52.930;8.644;2022-09-20T17:21:14;9.70;99.90
7129;DHT22;3606;52.930;8.644;2022-09-20T17:23:41;9.70;99.90
7129;DHT22;3606;52.930;8.644;2022-09-20T17:26:28;9.60;99.90
7129;DHT22;3606;52.930;8.644;2022-09-20T17:29:03;9.60;99.90
7129;DHT22;3606;52.930;8.644;2022-09-20T17:31:34;9.50;99.90
7129;DHT22;3606;52.930;8.644;2022-09-20T17:34:02;9.60;99.90
7129;DHT22;3606;52.930;8.644;2022-09-20T17:36:38;9.70;99.90
7129;DHT22;3606;52.930;8.644;2022-09-20T17:39:05;9.70;99.90
7129;DHT22;3606;52.930;8.644;2022-09-20T17:41:32;9.80;99.90
7129;DHT22;3606;52.930;8.644;2022-09-20T17:44:02;9.70;99.90
7129;DHT22;3606;52.930;8.644;2022-09-20T17:46:33;9.50;99.90
7129;DHT22;3606;52.930;8.644;2022-09-20T17:49:01;9.40;99.90
7129;DHT22;3606;52.930;8.644;2022-09-20T17:51:29;9.30;99.90
7129;DHT22;3606;52.930;8.644;2022-09-20T17:53:55;9.20;99.90
7129;DHT22;3606;52.930;8.644;2022-09-20T17:56:22;9.10;99.90
7129;DHT22;3606;52.930;8.644;2022-09-20T17:58:49;9.00;99.90
7129;DHT22;3606;52.930;8.644;2022-09-20T18:01:16;8.90;99.90
7129;DHT22;3606;52.930;8.644;2022-09-20T18:03:44;8.90;99.90
7129;DHT22;3606;52.930;8.644;2022-09-20T18:06:14;8.90;99.90
7129;DHT22;3606;52.930;8.644;2022-09-20T18:08:45;8.80;99.90
7129;DHT22;3606;52.930;8.644;2022-09-20T18:11:11;8.80;99.90
7129;DHT22;3606;52.930;8.644;2022-09-20T18:13:36;8.80;99.90
7129;DHT22;3606;52.930;8.644;2022-09-20T18:16:02;8.70;99.90
7129;DHT22;3606;52.930;8.644;2022-09-20T18:18:30;8.60;99.90
7129;DHT22;3606;52.930;8.644;2022-09-20T18:20:57;8.50;99.90
7129;DHT22;3606;52.930;8.644;2022-09-20T18:23:22;8.40;99.90
7129;DHT22;3606;52.930;8.644;2022-09-20T18:25:48;8.30;99.90
7129;DHT22;3606;52.930;8.644;2022-09-20T18:28:32;8.20;99.90
7129;DHT22;3606;52.930;8.644;2022-09-20T18:31:02;8.20;99.90
7129;DHT22;3606;52.930;8.644;2022-09-20T18:33:31;8.20;99.90
7129;DHT22;3606;52.930;8.644;2022-09-20T18:36:04;8.10;99.90
7129;DHT22;3606;52.930;8.644;2022-09-20T18:38:30;8.10;99.90
7129;DHT22;3606;52.930;8.644;2022-09-20T18:40:58;8.00;99.90
7129;DHT22;3606;52.930;8.644;2022-09-20T18:43:28;8.00;99.90
7129;DHT22;3606;52.930;8.644;2022-09-20T18:45:55;8.00;99.90
7129;DHT22;3606;52.930;8.644;2022-09-20T18:48:22;7.90;99.90
7129;DHT22;3606;52.930;8.644;2022-09-20T18:51:15;7.90;99.90
7129;DHT22;3606;52.930;8.644;2022-09-20T18:53:41;7.90;99.90
7129;DHT22;3606;52.930;8.644;2022-09-20T18:56:31;7.80;99.90
7129;DHT22;3606;52.930;8.644;2022-09-20T18:59:18;7.90;99.90
7129;DHT22;3606;52.930;8.644;2022-09-20T19:07:25;7.80;99.90
7129;DHT22;3606;52.930;8.644;2022-09-20T19:12:29;7.70;99.90
7129;DHT22;3606;52.930;8.644;2022-09-20T19:23:00;7.50;99.90
7129;DHT22;3606;52.930;8.644;2022-09-20T19:25:41;7.50;99.90
7129;DHT22;3606;52.930;8.644;2022-09-20T19:28:11;7.50;99.90
7129;DHT22;3606;52.930;8.644;2022-09-20T19:30:37;7.40;99.90
7129;DHT22;3606;52.930;8.644;2022-09-20T19:33:08;7.30;99.90
7129;DHT22;3606;52.930;8.644;2022-09-20T19:35:40;7.30;99.90
7129;DHT22;3606;52.930;8.644;2022-09-20T19:41:00;7.20;99.90
7129;DHT22;3606;52.930;8.644;2022-09-20T19:46:38;7.10;99.90
7129;DHT22;3606;52.930;8.644;2022-09-20T19:49:15;7.00;99.90
7129;DHT22;3606;52.930;8.644;2022-09-20T19:51:45;7.00;99.90
7129;DHT22;3606;52.930;8.644;2022-09-20T19:54:12;6.90;99.90
7129;DHT22;3606;52.930;8.644;2022-09-20T19:56:54;6.90;99.90
7129;DHT22;3606;52.930;8.644;2022-09-20T19:59:22;6.80;99.90
7129;DHT22;3606;52.930;8.644;2022-09-20T20:01:48;6.80;99.90
7129;DHT22;3606;52.930;8.644;2022-09-20T20:04:15;6.80;99.90
7129;DHT22;3606;52.930;8.644;2022-09-20T20:12:23;6.70;99.90
7129;DHT22;3606;52.930;8.644;2022-09-20T20:20:47;6.60;99.90
7129;DHT22;3606;52.930;8.644;2022-09-20T20:26:04;6.50;99.90
7129;DHT22;3606;52.930;8.644;2022-09-20T20:28:31;6.50;99.90
7129;DHT22;3606;52.930;8.644;2022-09-20T20:30:58;6.50;99.90
7129;DHT22;3606;52.930;8.644;2022-09-20T20:33:26;6.40;99.90
7129;DHT22;3606;52.930;8.644;2022-09-20T20:36:00;6.30;99.90
7129;DHT22;3606;52.930;8.644;2022-09-20T20:38:26;6.30;99.90
7129;DHT22;3606;52.930;8.644;2022-09-20T20:40:59;6.20;99.90
7129;DHT22;3606;52.930;8.644;2022-09-20T20:43:29;6.10;99.90
7129;DHT22;3606;52.930;8.644;2022-09-20T20:45:55;6.10;99.90
7129;DHT22;3606;52.930;8.644;2022-09-20T20:48:21;6.00;99.90
7129;DHT22;3606;52.930;8.644;2022-09-20T20:50:47;6.00;99.90
7129;DHT22;3606;52.930;8.644;2022-09-20T20:53:12;6.00;99.90
7129;DHT22;3606;52.930;8.644;2022-09-20T20:55:38;6.00;99.90
7129;DHT22;3606;52.930;8.644;2022-09-20T20:58:05;6.10;99.90
7129;DHT22;3606;52.930;8.644;2022-09-20T21:00:32;6.20;99.90
7129;DHT22;3606;52.930;8.644;2022-09-20T21:02:58;6.30;99.90
7129;DHT22;3606;52.930;8.644;2022-09-20T21:05:25;6.30;99.90
7129;DHT22;3606;52.930;8.644;2022-09-20T21:07:51;6.30;99.90
7129;DHT22;3606;52.930;8.644;2022-09-20T21:10:18;6.20;99.90
7129;DHT22;3606;52.930;8.644;2022-09-20T21:12:44;6.10;99.90
7129;DHT22;3606;52.930;8.644;2022-09-20T21:15:10;6.00;99.90
7129;DHT22;3606;52.930;8.644;2022-09-20T21:17:36;5.90;99.90
7129;DHT22;3606;52.930;8.644;2022-09-20T21:20:02;5.80;99.90
7129;DHT22;3606;52.930;8.644;2022-09-20T21:22:28;5.80;99.90
7129;DHT22;3606;52.930;8.644;2022-09-20T21:24:54;5.80;99.90
7129;DHT22;3606;52.930;8.644;2022-09-20T21:27:20;5.80;99.90
7129;DHT22;3606;52.930;8.644;2022-09-20T21:29:45;5.70;99.90
7129;DHT22;3606;52.930;8.644;2022-09-20T21:32:11;5.70;99.90
7129;DHT22;3606;52.930;8.644;2022-09-20T21:34:38;5.60;99.90
7129;DHT22;3606;52.930;8.644;2022-09-20T21:37:04;5.60;99.90
7129;DHT22;3606;52.930;8.644;2022-09-20T21:39:29;5.60;99.90
7129;DHT22;3606;52.930;8.644;2022-09-20T21:41:55;5.60;99.90
7129;DHT22;3606;52.930;8.644;2022-09-20T21:44:21;5.60;99.90
7129;DHT22;3606;52.930;8.644;2022-09-20T21:46:47;5.60;99.90
7129;DHT22;3606;52.930;8.644;2022-09-20T21:49:13;5.60;99.90
7129;DHT22;3606;52.930;8.644;2022-09-20T21:51:40;5.50;99.90
7129;DHT22;3606;52.930;8.644;2022-09-20T21:54:07;5.50;99.90
7129;DHT22;3606;52.930;8.644;2022-09-20T21:56:37;5.40;99.90
7129;DHT22;3606;52.930;8.644;2022-09-20T21:59:04;5.40;99.90
7129;DHT22;3606;52.930;8.644;2022-09-20T22:01:32;5.40;99.90
7129;DHT22;3606;52.930;8.644;2022-09-20T22:03:59;5.40;99.90
7129;DHT22;3606;52.930;8.644;2022-09-20T22:06:34;5.40;99.90
7129;DHT22;3606;52.930;8.644;2022-09-20T22:09:03;5.30;99.90
7129;DHT22;3606;52.930;8.644;2022-09-20T22:11:31;5.30;99.90
7129;DHT22;3606;52.930;8.644;2022-09-20T22:13:57;5.40;99.90
7129;DHT22;3606;52.930;8.644;2022-09-20T22:16:24;5.40;99.90
7129;DHT22;3606;52.930;8.644;2022-09-20T22:18:50;5.40;99.90
7129;DHT22;3606;52.930;8.644;2022-09-20T22:21:24;5.40;99.90
7129;DHT22;3606;52.930;8.644;2022-09-20T22:23:53;5.30;99.90
7129;DHT22;3606;52.930;8.644;2022-09-20T22:26:22;5.30;99.90
7129;DHT22;3606;52.930;8.644;2022-09-20T22:28:48;5.20;99.90
7129;DHT22;3606;52.930;8.644;2022-09-20T22:31:18;5.10;99.90
7129;DHT22;3606;52.930;8.644;2022-09-20T22:33:49;5.10;99.90
7129;DHT22;3606;52.930;8.644;2022-09-20T22:36:24;5.10;99.90
7129;DHT22;3606;52.930;8.644;2022-09-20T22:38:51;5.10;99.90
7129;DHT22;3606;52.930;8.644;2022-09-20T22:41:17;5.10;99.90
7129;DHT22;3606;52.930;8.644;2022-09-20T22:43:43;5.20;99.90
7129;DHT22;3606;52.930;8.644;2022-09-20T22:46:15;5.20;99.90